Time;durP1;ratioP1;P1;durP2;ratioP2;P2;SDS_P1;SDS_P2;PMS_P1;PMS_P2;Temp;Humidity;BMP_temperature;BMP_pressure;BME280_temperature;BME280_humidity;BME280_pressure;Samples;Min_cycle;Max_cycle;Signal;HPM_P1;HPM_P2
2022/05/08 00:00:53;;;;;;;;;19.00;17.33;;;;;17.13;53.74;102109.34;4985373;28;45550;-50
2022/05/08 00:03:18;;;;;;;;;26.33;18.00;;;;;17.16;53.99;102114.53;4979656;28;66060;-51
2022/05/08 00:05:43;;;;;;;;;18.67;17.67;;;;;17.18;53.25;102114.44;4977041;28;64319;-50
2022/05/08 00:08:09;;;;;;;;;16.67;15.33;;;;;17.14;53.66;102115.56;4980810;28;56538;-51
2022/05/08 00:10:34;;;;;;;;;17.67;16.00;;;;;17.11;53.69;102115.75;4980849;28;45356;-50
2022/05/08 00:12:59;;;;;;;;;18.67;17.00;;;;;17.06;53.80;102117.84;4980497;28;63806;-53
2022/05/08 00:15:25;;;;;;;;;20.67;18.33;;;;;17.02;54.06;102115.31;4980752;28;63363;-51
2022/05/08 00:17:50;;;;;;;;;17.67;17.67;;;;;16.98;54.60;102112.91;4980912;28;45744;-51
2022/05/08 00:20:16;;;;;;;;;19.67;15.33;;;;;16.91;54.27;102115.06;4980493;28;60042;-50
2022/05/08 00:22:44;;;;;;;;;24.00;18.00;;;;;16.89;54.28;102111.56;4979283;28;59643;-49
2022/05/08 00:25:10;;;;;;;;;17.00;15.33;;;;;16.89;54.13;102111.56;4981254;28;45326;-50
2022/05/08 00:27:35;;;;;;;;;18.00;16.67;;;;;16.90;54.21;102110.63;4980629;28;45639;-52
2022/05/08 00:30:01;;;;;;;;;18.67;14.67;;;;;16.90;54.19;102113.31;4980385;28;60861;-51
2022/05/08 00:32:26;;;;;;;;;19.67;17.00;;;;;16.85;54.63;102118.91;4980508;28;45315;-50
2022/05/08 00:34:52;;;;;;;;;16.00;14.00;;;;;16.79;54.17;102126.44;4980379;28;45515;-50
2022/05/08 00:37:17;;;;;;;;;14.67;14.33;;;;;16.72;54.98;102127.75;4980804;28;50881;-51
2022/05/08 00:39:43;;;;;;;;;14.67;12.00;;;;;16.65;55.00;102132.59;4980561;28;45567;-50
2022/05/08 00:42:09;;;;;;;;;17.33;15.00;;;;;16.59;55.17;102132.94;4981092;28;46851;-49
2022/05/08 00:44:34;;;;;;;;;20.33;16.33;;;;;16.56;54.27;102123.22;4980310;28;45248;-50
2022/05/08 00:47:00;;;;;;;;;17.33;16.00;;;;;16.51;54.88;102133.34;4983214;28;51674;-49
2022/05/08 00:49:25;;;;;;;;;13.67;11.33;;;;;16.47;55.02;102129.09;4980419;28;46753;-50
2022/05/08 00:51:50;;;;;;;;;17.33;14.00;;;;;16.47;54.99;102127.25;4979238;28;67147;-51
2022/05/08 00:54:16;;;;;;;;;20.00;17.67;;;;;16.47;55.33;102127.25;4962447;28;63356;-51
2022/05/08 00:56:41;;;;;;;;;17.00;15.33;;;;;16.45;55.42;102130.97;4980511;28;45432;-51
2022/05/08 00:59:07;;;;;;;;;16.67;16.67;;;;;16.45;54.77;102130.97;4980791;28;45889;-51
2022/05/08 01:01:32;;;;;;;;;18.67;16.67;;;;;16.43;55.21;102127.53;4983443;28;66623;-54
2022/05/08 01:03:58;;;;;;;;;14.33;11.00;;;;;16.36;55.25;102124.28;4979661;28;61493;-51
2022/05/08 01:06:23;;;;;;;;;18.67;16.33;;;;;16.31;55.73;102129.91;4979849;28;58507;-53
2022/05/08 01:08:49;;;;;;;;;17.00;14.33;;;;;16.28;55.16;102131.88;4962790;28;45379;-54
2022/05/08 01:11:15;;;;;;;;;18.33;15.00;;;;;16.24;55.19;102133.84;4980553;28;45439;-50
2022/05/08 01:13:41;;;;;;;;;19.00;17.33;;;;;16.19;55.72;102130.53;4979929;28;45558;-53
2022/05/08 01:16:11;;;;;;;;;20.33;18.00;;;;;16.16;55.97;102130.72;4980852;28;45352;-51
2022/05/08 01:18:37;;;;;;;;;17.33;15.00;;;;;16.16;56.02;102126.22;4962517;28;45313;-54
2022/05/08 01:21:03;;;;;;;;;22.67;17.00;;;;;16.14;55.90;102128.13;4979948;28;45499;-54
2022/05/08 01:23:29;;;;;;;;;23.00;19.67;;;;;16.14;55.62;102121.88;4979433;28;45265;-52
2022/05/08 01:25:55;;;;;;;;;15.33;13.33;;;;;16.16;55.61;102125.34;4980659;28;45329;-55
2022/05/08 01:28:21;;;;;;;;;19.33;19.00;;;;;16.18;56.07;102118.97;4979958;28;45646;-53
2022/05/08 01:30:48;;;;;;;;;24.33;21.00;;;;;16.16;55.84;102120.84;4979671;28;47108;-53
2022/05/08 01:33:13;;;;;;;;;23.00;18.00;;;;;16.11;56.18;102108.63;4978834;28;45569;-52
2022/05/08 01:35:39;;;;;;;;;18.67;18.67;;;;;16.05;55.91;102112.50;4979324;28;45183;-54
2022/05/08 01:38:05;;;;;;;;;20.00;17.33;;;;;16.00;56.42;102110.06;4979911;28;45362;-53
2022/05/08 01:40:30;;;;;;;;;17.00;15.67;;;;;15.98;56.05;102113.75;4962071;28;45636;-51
2022/05/08 01:42:56;;;;;;;;;24.00;21.67;;;;;15.98;56.45;102111.97;4979994;28;45314;-51
2022/05/08 01:45:21;;;;;;;;;24.00;18.67;;;;;16.01;56.15;102113.63;4984359;28;45317;-49
2022/05/08 01:50:30;;;;;;;;;21.67;21.67;;;;;16.02;56.44;102116.22;4979548;28;45579;-53
2022/05/08 01:52:56;;;;;;;;;20.33;17.33;;;;;16.05;56.40;102107.13;4978355;28;64966;-50
2022/05/08 01:55:21;;;;;;;;;29.00;28.67;;;;;16.07;56.29;102115.97;4979194;28;60748;-49
2022/05/08 01:57:47;;;;;;;;;22.33;20.33;;;;;16.08;56.27;102116.84;4979559;28;46542;-52
2022/05/08 02:00:12;;;;;;;;;22.00;22.00;;;;;16.09;56.38;102114.06;4982836;28;64743;-51
2022/05/08 02:02:38;;;;;;;;;19.67;17.67;;;;;16.04;56.40;102113.44;4979167;28;45466;-53
2022/05/08 02:05:03;;;;;;;;;24.67;21.33;;;;;15.97;56.28;102118.28;4961537;28;62454;-53
2022/05/08 02:07:29;;;;;;;;;26.33;24.33;;;;;15.94;56.82;102122.94;4979191;28;45466;-50
2022/05/08 02:09:55;;;;;;;;;23.33;21.00;;;;;15.91;56.98;102120.41;4978664;28;67200;-50
2022/05/08 02:12:21;;;;;;;;;29.00;25.00;;;;;15.86;57.09;102120.63;4962146;28;45315;-50
2022/05/08 02:14:46;;;;;;;;;20.33;18.00;;;;;15.81;56.68;102126.25;4978489;28;59866;-50
2022/05/08 02:17:11;;;;;;;;;27.67;23.00;;;;;15.81;57.13;102120.00;4978774;28;61298;-51
2022/05/08 02:19:37;;;;;;;;;28.67;26.33;;;;;15.81;56.85;102125.38;4978821;28;45278;-50
2022/05/08 02:22:02;;;;;;;;;31.67;26.00;;;;;15.80;57.32;102124.47;4979179;28;46392;-49
2022/05/08 02:24:28;;;;;;;;;30.67;27.00;;;;;15.77;57.01;102119.25;4978012;28;45661;-52
2022/05/08 02:26:53;;;;;;;;;22.33;20.33;;;;;15.75;57.28;102123.84;4978684;28;60395;-50
2022/05/08 02:29:18;;;;;;;;;28.00;26.33;;;;;15.71;57.20;102124.94;4978833;28;62510;-53
2022/05/08 02:31:44;;;;;;;;;29.33;23.67;;;;;15.69;57.24;102126.84;4978767;28;45481;-51
2022/05/08 02:34:09;;;;;;;;;24.33;22.00;;;;;15.67;57.86;102132.28;4979563;28;45280;-51
2022/05/08 02:36:35;;;;;;;;;33.67;27.33;;;;;15.68;57.26;102125.09;4977825;28;62240;-51
2022/05/08 02:39:00;;;;;;;;;25.33;22.67;;;;;15.62;58.41;102128.97;4978596;28;66545;-49
2022/05/08 02:41:26;;;;;;;;;32.33;29.67;;;;;15.53;58.07;102129.44;4978420;28;63327;-52
2022/05/08 02:43:51;;;;;;;;;32.67;30.00;;;;;15.41;58.69;102138.06;4979394;28;49025;-49
2022/05/08 02:46:16;;;;;;;;;32.33;27.00;;;;;15.28;58.74;102136.00;4990620;28;60081;-53
2022/05/08 02:48:42;;;;;;;;;28.00;26.00;;;;;15.20;58.52;102139.06;4985122;28;46149;-51
2022/05/08 02:51:07;;;;;;;;;33.67;30.67;;;;;15.13;59.27;102137.59;4985493;28;45318;-52
2022/05/08 02:53:34;;;;;;;;;36.00;29.00;;;;;15.07;59.59;102147.75;4984528;28;45413;-52
2022/05/08 02:58:43;;;;;;;;;34.00;30.00;;;;;14.92;59.56;102142.16;4984850;28;45452;-50
2022/05/08 03:01:08;;;;;;;;;34.00;30.67;;;;;14.87;59.56;102146.88;4988940;28;58046;-50
2022/05/08 03:03:34;;;;;;;;;42.67;34.00;;;;;14.87;59.36;102141.53;4983899;28;60164;-50
2022/05/08 03:06:00;;;;;;;;;37.67;32.33;;;;;14.89;59.89;102150.38;4985787;28;45326;-50
2022/05/08 03:08:25;;;;;;;;;34.67;32.33;;;;;14.87;59.95;102147.75;4984976;28;45993;-48
2022/05/08 03:13:40;;;;;;;;;36.00;30.33;;;;;14.80;59.61;102148.13;4985194;28;45372;-49
2022/05/08 03:16:06;;;;;;;;;43.00;36.33;;;;;14.79;59.79;102146.38;4977739;28;45464;-50
2022/05/08 03:18:32;;;;;;;;;46.67;35.67;;;;;14.79;60.14;102151.72;4984607;28;46272;-50
2022/05/08 03:20:58;;;;;;;;;39.67;35.33;;;;;14.81;59.94;102148.03;4985642;28;45755;-52
2022/05/08 03:23:23;;;;;;;;;47.67;38.67;;;;;14.88;60.36;102143.25;4984762;28;45349;-50
2022/05/08 03:25:49;;;;;;;;;41.33;34.00;;;;;14.89;59.99;102140.50;4985227;28;45528;-51
2022/05/08 03:28:18;;;;;;;;;42.67;35.00;;;;;14.89;59.96;102137.81;4986605;28;46135;-50
2022/05/08 03:30:44;;;;;;;;;50.33;37.67;;;;;14.85;60.22;102143.41;4975540;28;45381;-52
2022/05/08 03:33:09;;;;;;;;;47.67;36.00;;;;;14.80;60.03;102148.97;4985035;28;45376;-50
2022/05/08 03:35:38;;;;;;;;;48.33;38.00;;;;;14.77;60.18;102142.88;4985037;28;45152;-50
2022/05/08 03:38:05;;;;;;;;;46.00;36.00;;;;;14.74;60.07;102148.41;4984920;28;45663;-51
2022/05/08 03:40:34;;;;;;;;;48.25;37.75;;;;;14.71;60.41;102150.25;4984732;28;45374;-50
2022/05/08 03:42:59;;;;;;;;;47.00;39.25;;;;;14.69;60.40;102149.47;4969766;28;45334;-50
2022/05/08 03:45:25;;;;;;;;;44.67;37.67;;;;;14.67;60.56;102156.69;4991803;28;45786;-49
2022/05/08 03:47:53;;;;;;;;;52.33;38.33;;;;;14.64;60.69;102153.28;4983223;28;45360;-49
2022/05/08 03:50:19;;;;;;;;;50.50;39.75;;;;;14.62;60.72;102147.97;4982405;28;62937;-50
2022/05/08 03:52:45;;;;;;;;;46.67;35.67;;;;;14.64;60.72;102148.81;4980039;28;45286;-49
2022/05/08 03:55:15;;;;;;;;;50.33;40.33;;;;;14.64;60.97;102150.59;4983127;28;45408;-49
2022/05/08 03:57:44;;;;;;;;;47.67;36.00;;;;;14.64;60.75;102154.19;4979125;28;47187;-50
2022/05/08 04:00:10;;;;;;;;;51.00;40.25;;;;;14.63;60.87;102152.41;4987238;28;45330;-48
2022/05/08 04:02:35;;;;;;;;;52.33;40.33;;;;;14.63;60.89;102157.75;4976776;28;45362;-51
2022/05/08 04:05:02;;;;;;;;;48.00;39.67;;;;;14.65;60.92;102153.25;4979534;28;63768;-50
2022/05/08 04:07:28;;;;;;;;;49.00;38.00;;;;;14.68;60.47;102145.06;4960119;28;46203;-52
2022/05/08 04:09:53;;;;;;;;;46.00;37.67;;;;;14.72;60.45;102154.69;4980076;28;45380;-49
2022/05/08 04:12:19;;;;;;;;;49.00;38.67;;;;;14.76;60.90;102157.22;4977961;28;60776;-50
2022/05/08 04:14:44;;;;;;;;;48.33;40.00;;;;;14.78;60.85;102153.53;4979527;28;60677;-49
2022/05/08 04:17:09;;;;;;;;;48.00;40.67;;;;;14.77;60.89;102157.16;4978452;28;64005;-52
2022/05/08 04:19:35;;;;;;;;;49.33;40.33;;;;;14.75;60.78;102158.16;4978567;28;65008;-50
2022/05/08 04:24:44;;;;;;;;;45.67;37.33;;;;;14.64;61.35;102150.59;4977976;28;45453;-50
2022/05/08 04:27:10;;;;;;;;;41.00;35.00;;;;;14.59;61.03;102157.94;4958265;28;65709;-49
2022/05/08 04:29:35;;;;;;;;;51.00;39.00;;;;;14.49;61.41;102161.03;4980812;28;45294;-52
2022/05/08 04:32:01;;;;;;;;;51.75;40.25;;;;;14.45;62.20;102156.78;4981196;28;45469;-52
2022/05/08 04:34:26;;;;;;;;;51.67;41.00;;;;;14.42;62.23;102162.28;4981344;28;45457;-50
2022/05/08 04:36:52;;;;;;;;;47.67;37.00;;;;;14.36;62.49;102166.06;4979632;28;66774;-51
2022/05/08 04:39:20;;;;;;;;;51.50;42.50;;;;;14.32;62.17;102163.63;4981048;28;45448;-49
2022/05/08 04:41:45;;;;;;;;;54.75;44.25;;;;;14.30;62.54;102165.47;4980796;28;45342;-51
2022/05/08 04:44:11;;;;;;;;;51.25;41.75;;;;;14.29;62.84;102169.09;4981855;28;53029;-52
2022/05/08 04:46:36;;;;;;;;;49.00;39.50;;;;;14.28;62.43;102165.56;4985321;28;67427;-51
2022/05/08 04:49:02;;;;;;;;;50.00;39.50;;;;;14.27;62.69;102182.53;4981205;28;45243;-53
2022/05/08 04:51:27;;;;;;;;;53.25;41.00;;;;;14.25;62.41;102176.41;4980667;28;45237;-51
2022/05/08 04:53:53;;;;;;;;;50.75;42.00;;;;;14.28;62.43;102176.25;4981061;28;45370;-53
2022/05/08 04:56:18;;;;;;;;;52.00;40.25;;;;;14.32;62.23;102177.88;4981636;28;49044;-52
2022/05/08 04:58:44;;;;;;;;;50.50;39.50;;;;;14.41;62.29;102189.97;4979852;28;61274;-53
2022/05/08 05:01:09;;;;;;;;;53.25;39.50;;;;;14.44;62.32;102180.94;4968308;28;45391;-53
2022/05/08 05:03:34;;;;;;;;;53.00;40.00;;;;;14.47;62.57;102183.47;4979502;28;45555;-51
2022/05/08 05:06:00;;;;;;;;;53.00;40.33;;;;;14.48;61.97;102186.06;4980083;28;61388;-52
2022/05/08 05:08:25;;;;;;;;;58.00;45.25;;;;;14.50;62.05;102192.25;4979272;28;64158;-51
2022/05/08 05:10:50;;;;;;;;;48.00;39.00;;;;;14.49;61.96;102193.16;4977116;28;57659;-53
2022/05/08 05:13:16;;;;;;;;;44.33;37.67;;;;;14.48;61.78;102204.81;4978279;28;45553;-49
2022/05/08 05:15:42;;;;;;;;;54.00;42.50;;;;;14.46;61.88;102198.69;4961313;28;45405;-52
2022/05/08 05:18:07;;;;;;;;;47.33;38.67;;;;;14.42;61.92;102205.09;4979353;28;45460;-52
2022/05/08 05:20:32;;;;;;;;;51.33;41.33;;;;;14.35;61.96;102201.84;4978740;28;45405;-50
2022/05/08 05:23:01;;;;;;;;;49.00;40.00;;;;;14.36;61.97;102205.38;4978024;28;59384;-49
2022/05/08 05:25:27;;;;;;;;;53.50;41.00;;;;;14.35;62.35;102207.19;4977473;28;46300;-52
2022/05/08 05:27:54;;;;;;;;;50.50;40.50;;;;;14.37;62.30;102213.31;4978832;28;45251;-50
2022/05/08 05:30:19;;;;;;;;;50.50;39.50;;;;;14.38;62.20;102211.53;4978385;28;45259;-52
2022/05/08 05:32:45;;;;;;;;;54.50;41.00;;;;;14.40;62.36;102220.34;4975003;28;45689;-52
2022/05/08 05:35:10;;;;;;;;;49.25;39.50;;;;;14.42;62.32;102223.84;4977496;28;45477;-51
2022/05/08 05:37:36;;;;;;;;;55.67;41.67;;;;;14.41;62.22;102218.56;4978782;28;45263;-50
2022/05/08 05:40:01;;;;;;;;;51.25;39.00;;;;;14.39;62.90;102224.84;4979574;28;58893;-48
2022/05/08 05:42:27;;;;;;;;;51.33;38.67;;;;;14.35;62.67;102228.59;4980894;28;55152;-51
2022/05/08 05:44:52;;;;;;;;;55.25;41.00;;;;;14.30;63.00;102224.34;4978686;28;46949;-49
2022/05/08 05:50:01;;;;;;;;;50.67;40.00;;;;;14.19;63.17;102241.75;4980223;28;45329;-49
2022/05/08 05:52:27;;;;;;;;;47.67;39.00;;;;;14.18;63.09;102232.00;4977719;28;62514;-48
2022/05/08 05:54:53;;;;;;;;;45.75;37.75;;;;;14.18;63.02;102239.13;4979524;28;46302;-52
2022/05/08 05:57:18;;;;;;;;;52.00;40.00;;;;;14.16;63.24;102238.34;4981386;28;45502;-48
2022/05/08 05:59:44;;;;;;;;;53.75;43.00;;;;;14.20;63.35;102235.47;4980023;28;62256;-51
2022/05/08 06:02:10;;;;;;;;;57.00;42.25;;;;;14.21;63.41;102244.38;4979797;28;45496;-51
2022/05/08 06:04:35;;;;;;;;;54.00;41.00;;;;;14.20;62.97;102238.13;4978344;28;67458;-49
2022/05/08 06:07:00;;;;;;;;;49.50;40.00;;;;;14.19;63.35;102249.78;4979220;28;45308;-50
2022/05/08 06:09:26;;;;;;;;;50.50;36.25;;;;;14.23;63.13;102246.03;4979425;28;57602;-50
2022/05/08 06:11:53;;;;;;;;;54.75;39.50;;;;;14.23;62.97;102247.84;4971594;28;45315;-49
2022/05/08 06:14:18;;;;;;;;;53.00;39.75;;;;;14.22;63.04;102249.66;4979347;28;45443;-48
2022/05/08 06:16:44;;;;;;;;;50.75;42.25;;;;;14.24;63.29;102254.94;4978586;28;45205;-53
2022/05/08 06:19:09;;;;;;;;;52.25;41.50;;;;;14.27;63.17;102256.63;4954329;28;45471;-51
2022/05/08 06:21:35;;;;;;;;;54.75;42.25;;;;;14.29;63.17;102252.06;4958473;28;45546;-52
2022/05/08 06:24:00;;;;;;;;;51.00;42.00;;;;;14.33;63.08;102248.34;4961911;28;45290;-51
2022/05/08 06:26:26;;;;;;;;;47.75;37.25;;;;;14.36;63.17;102243.69;4978696;28;58807;-49
2022/05/08 06:28:52;;;;;;;;;60.00;42.50;;;;;14.37;62.82;102255.28;4980669;28;45481;-50
2022/05/08 06:31:17;;;;;;;;;52.50;40.25;;;;;14.34;63.14;102250.06;4979603;28;45589;-49
2022/05/08 06:33:43;;;;;;;;;49.50;40.50;;;;;14.26;63.52;102253.06;4978204;28;68324;-49
2022/05/08 06:36:09;;;;;;;;;49.75;41.00;;;;;14.19;63.19;102254.25;4979195;28;45364;-51
2022/05/08 06:38:34;;;;;;;;;51.00;41.00;;;;;14.18;63.51;102257.88;4978868;28;45374;-51
2022/05/08 06:41:00;;;;;;;;;48.00;37.25;;;;;14.19;63.75;102265.81;4979459;28;45347;-50
2022/05/08 06:43:25;;;;;;;;;49.50;40.50;;;;;14.21;63.53;102255.09;4979807;28;65537;-52
2022/05/08 06:45:51;;;;;;;;;47.75;40.00;;;;;14.24;63.21;102252.25;4986473;28;45441;-51
2022/05/08 06:48:16;;;;;;;;;50.75;39.50;;;;;14.27;63.42;102254.81;4979188;28;45571;-49
2022/05/08 06:50:43;;;;;;;;;52.50;40.25;;;;;14.32;63.62;102259.97;4978998;28;45287;-51
2022/05/08 06:53:08;;;;;;;;;53.75;43.25;;;;;14.32;63.44;102254.63;4978529;28;46404;-50
2022/05/08 06:55:35;;;;;;;;;56.25;41.75;;;;;14.31;63.54;102259.09;4979734;28;45463;-51
2022/05/08 06:58:01;;;;;;;;;48.50;39.50;;;;;14.32;63.28;102263.50;4979263;28;45500;-49
2022/05/08 07:03:10;;;;;;;;;49.33;37.67;;;;;14.39;63.28;102270.34;4978945;28;45459;-49
2022/05/08 07:05:40;;;;;;;;;48.25;40.00;;;;;14.41;63.36;102272.97;4977819;28;52221;-51
2022/05/08 07:08:06;;;;;;;;;48.00;39.00;;;;;14.44;63.27;102275.50;4978780;28;45350;-50
2022/05/08 07:10:31;;;;;;;;;47.67;38.67;;;;;14.48;63.10;102278.91;4978452;28;45267;-50
2022/05/08 07:12:56;;;;;;;;;48.33;39.67;;;;;14.50;63.03;102269.88;4978954;28;46253;-49
2022/05/08 07:15:22;;;;;;;;;52.50;41.00;;;;;14.52;62.69;102273.38;4960376;28;63199;-53
2022/05/08 07:17:47;;;;;;;;;52.25;41.00;;;;;14.51;63.27;102276.09;4978982;28;45332;-52
2022/05/08 07:20:13;;;;;;;;;49.00;40.50;;;;;14.55;63.17;102283.09;4977949;28;60872;-48
2022/05/08 07:22:39;;;;;;;;;47.33;39.33;;;;;14.62;63.16;102279.19;4977384;28;67608;-50
2022/05/08 07:25:05;;;;;;;;;51.00;40.00;;;;;14.70;62.98;102282.41;4978531;28;45342;-49
2022/05/08 07:27:32;;;;;;;;;49.00;37.67;;;;;14.73;62.85;102278.72;4978448;28;45470;-49
2022/05/08 07:29:57;;;;;;;;;49.25;39.50;;;;;14.75;62.87;102284.06;4976048;28;45381;-49
2022/05/08 07:32:24;;;;;;;;;51.67;39.67;;;;;14.68;62.81;102284.31;4979246;28;48651;-51
2022/05/08 07:37:34;;;;;;;;;48.33;39.00;;;;;14.69;62.96;102287.84;4980783;28;45400;-52
2022/05/08 07:39:59;;;;;;;;;50.67;38.33;;;;;14.73;63.05;102297.47;4979923;28;48761;-50
2022/05/08 07:42:25;;;;;;;;;46.67;37.67;;;;;14.80;62.98;102293.59;4982870;28;67599;-50
2022/05/08 07:44:50;;;;;;;;;47.33;37.67;;;;;14.85;63.14;102294.28;4979543;28;59382;-49
2022/05/08 07:47:16;;;;;;;;;46.67;38.67;;;;;14.86;62.51;102296.03;4981095;28;62250;-51
2022/05/08 07:49:41;;;;;;;;;49.25;39.00;;;;;14.87;62.42;102299.56;4980438;28;45545;-52
2022/05/08 07:52:06;;;;;;;;;49.25;40.25;;;;;14.85;62.79;102302.31;4980489;28;65546;-50
2022/05/08 07:54:32;;;;;;;;;50.50;40.75;;;;;14.83;62.35;102303.31;4980319;28;64271;-50
2022/05/08 07:56:57;;;;;;;;;53.33;39.00;;;;;14.84;62.96;102305.06;4982470;28;45338;-51
2022/05/08 07:59:22;;;;;;;;;52.75;40.50;;;;;14.87;62.37;102308.47;4981121;28;61736;-49
2022/05/08 08:01:48;;;;;;;;;51.00;40.00;;;;;14.89;62.79;102305.72;4979999;28;67263;-51
2022/05/08 08:04:13;;;;;;;;;50.25;38.50;;;;;14.90;62.68;102312.84;4972877;28;64307;-52
2022/05/08 08:06:38;;;;;;;;;49.75;41.50;;;;;14.94;62.32;102313.56;4980169;28;58249;-52
2022/05/08 08:09:04;;;;;;;;;52.00;40.00;;;;;15.00;62.48;102313.28;4977293;28;45624;-51
2022/05/08 08:11:30;;;;;;;;;49.50;40.00;;;;;15.03;62.63;102321.16;4980651;28;46106;-51
2022/05/08 08:13:56;;;;;;;;;51.67;38.33;;;;;15.00;62.26;102324.00;4981457;28;45234;-53
2022/05/08 08:16:21;;;;;;;;;47.67;38.33;;;;;14.96;62.47;102320.59;4981568;28;45976;-49
2022/05/08 08:18:48;;;;;;;;;50.67;39.33;;;;;14.98;62.61;102321.41;4978045;28;45669;-53
2022/05/08 08:21:14;;;;;;;;;48.67;38.00;;;;;15.01;62.13;102315.03;4976897;28;46320;-53
2022/05/08 08:23:40;;;;;;;;;45.33;37.00;;;;;15.03;62.22;102321.16;4979869;28;45504;-49
2022/05/08 08:26:07;;;;;;;;;45.50;38.50;;;;;15.09;61.81;102320.03;4981091;28;45356;-53
2022/05/08 08:28:32;;;;;;;;;52.75;40.00;;;;;15.16;62.06;102316.13;4974649;28;45579;-52
2022/05/08 08:30:57;;;;;;;;;45.00;38.75;;;;;15.21;62.06;102319.47;4974955;28;65872;-53
2022/05/08 08:33:23;;;;;;;;;50.00;39.67;;;;;15.24;62.13;102314.00;4977901;28;45347;-52
2022/05/08 08:35:49;;;;;;;;;52.33;39.67;;;;;15.29;62.16;102313.75;4972302;28;45693;-52
2022/05/08 08:38:14;;;;;;;;;52.50;39.25;;;;;15.34;61.75;102309.94;4980260;28;45528;-52
2022/05/08 08:40:40;;;;;;;;;51.00;38.67;;;;;15.39;61.65;102309.72;4980267;28;46174;-50
2022/05/08 08:43:07;;;;;;;;;50.33;38.33;;;;;15.38;61.50;102310.66;4980528;28;45331;-49
2022/05/08 08:48:35;;;;;;;;;49.00;37.67;;;;;15.47;61.28;102307.53;4963605;28;45863;-51
2022/05/08 08:51:02;;;;;;;;;47.33;37.00;;;;;15.53;61.17;102312.63;4979801;28;46315;-51
2022/05/08 08:53:27;;;;;;;;;49.33;40.00;;;;;15.57;61.84;102316.03;4979540;28;45449;-50
2022/05/08 08:55:53;;;;;;;;;48.50;35.75;;;;;15.62;61.44;102307.75;4979679;28;45456;-52
2022/05/08 08:58:19;;;;;;;;;50.67;41.00;;;;;15.66;61.32;102310.22;4979059;28;45580;-53
2022/05/08 09:00:51;;;;;;;;;50.67;39.00;;;;;15.69;61.18;102306.53;4979977;28;46277;-54
2022/05/08 09:03:27;;;;;;;;;52.50;40.25;;;;;15.69;61.02;102309.22;4979981;28;45222;-51
2022/05/08 09:05:56;;;;;;;;;45.33;37.33;;;;;15.69;61.05;102307.41;4979470;28;45838;-51
2022/05/08 09:08:26;;;;;;;;;48.33;37.33;;;;;15.73;60.83;102308.13;4977867;28;45753;-55
2022/05/08 09:10:53;;;;;;;;;56.00;40.33;;;;;15.78;61.00;102308.78;4979447;28;46302;-55
2022/05/08 09:13:19;;;;;;;;;45.67;38.00;;;;;15.82;60.90;102309.53;4963103;28;45424;-55
2022/05/08 09:15:45;;;;;;;;;51.00;39.75;;;;;15.82;60.58;102306.84;4980222;28;45368;-53
2022/05/08 09:18:11;;;;;;;;;44.33;37.00;;;;;15.82;60.34;102310.41;4979206;28;45575;-52
2022/05/08 09:20:43;;;;;;;;;53.75;42.00;;;;;15.84;60.68;102313.03;4970016;28;45506;-54
2022/05/08 09:23:17;;;;;;;;;49.00;39.67;;;;;15.83;60.02;102316.66;4971530;28;45568;-55
2022/05/08 09:25:56;;;;;;;;;53.25;40.00;;;;;15.80;59.94;102314.06;4977739;28;45596;-52
2022/05/08 09:28:29;;;;;;;;;48.00;37.33;;;;;15.75;60.34;102313.41;4978634;28;45623;-55
2022/05/08 09:31:00;;;;;;;;;47.75;37.25;;;;;15.77;60.06;102314.22;4974193;28;46223;-53
2022/05/08 09:33:47;;;;;;;;;52.00;39.67;;;;;15.87;60.02;102304.81;4977511;28;46358;-54
2022/05/08 09:36:25;;;;;;;;;50.33;39.00;;;;;16.03;60.03;102304.94;4970813;28;45398;-54
2022/05/08 09:39:00;;;;;;;;;50.33;39.67;;;;;16.14;60.42;102309.75;4978430;28;45555;-54
2022/05/08 09:41:30;;;;;;;;;46.67;37.33;;;;;16.25;59.29;102318.16;4978036;28;45470;-55
2022/05/08 09:44:14;;;;;;;;;52.75;40.00;;;;;16.35;59.58;102313.19;4978483;28;45516;-55
2022/05/08 09:46:46;;;;;;;;;46.33;37.00;;;;;16.43;59.01;102313.66;4972846;28;45553;-54
2022/05/08 09:49:12;;;;;;;;;50.33;38.67;;;;;16.46;59.18;102315.34;4973865;28;45506;-53
2022/05/08 09:51:38;;;;;;;;;53.50;40.25;;;;;16.48;59.34;102302.72;4978087;28;45286;-51
2022/05/08 09:54:04;;;;;;;;;46.75;38.75;;;;;16.55;57.94;102317.53;4959017;28;45353;-52
2022/05/08 09:56:31;;;;;;;;;52.33;42.00;;;;;16.59;58.41;102312.88;4979719;28;45274;-52
2022/05/08 09:58:56;;;;;;;;;54.67;44.00;;;;;16.66;58.62;102312.50;4979367;28;45547;-54
2022/05/08 10:01:24;;;;;;;;;51.75;41.25;;;;;16.71;58.58;102304.19;4977184;28;58930;-54
2022/05/08 10:03:50;;;;;;;;;46.25;37.50;;;;;16.79;58.25;102304.66;4966709;28;45527;-53
2022/05/08 10:06:15;;;;;;;;;52.00;43.33;;;;;16.86;58.52;102302.53;4974304;28;45615;-53
2022/05/08 10:08:41;;;;;;;;;53.33;43.67;;;;;16.96;57.85;102300.22;4964821;28;45511;-54
2022/05/08 10:14:05;;;;;;;;;48.75;39.25;;;;;17.45;57.21;102300.25;4964657;28;45488;-53
2022/05/08 10:17:09;;;;;;;;;50.33;40.00;;;;;17.56;56.69;102294.28;4979320;28;45389;-54
2022/05/08 10:19:34;;;;;;;;;46.67;38.67;;;;;17.61;56.36;102291.31;4970890;28;45246;-55
2022/05/08 10:22:02;;;;;;;;;54.00;42.00;;;;;17.64;57.07;102289.34;4978778;28;45339;-55
2022/05/08 10:24:54;;;;;;;;;54.00;41.33;;;;;17.68;56.18;102296.28;4979379;28;45363;-55
2022/05/08 10:27:26;;;;;;;;;55.00;43.00;;;;;17.74;56.33;102291.50;4979143;28;45263;-54
2022/05/08 10:29:52;;;;;;;;;50.33;41.00;;;;;17.79;56.12;102292.09;4980390;28;45540;-54
2022/05/08 10:32:32;;;;;;;;;52.25;40.75;;;;;17.89;55.38;102287.94;4979045;28;46268;-55
2022/05/08 10:35:20;;;;;;;;;53.75;42.50;;;;;18.10;55.77;102285.00;4978395;28;45274;-55
2022/05/08 10:37:51;;;;;;;;;52.00;41.67;;;;;18.54;54.92;102281.47;4976586;28;45549;-54
2022/05/08 10:40:22;;;;;;;;;46.33;37.00;;;;;18.85;54.56;102276.88;4976869;28;45317;-56
2022/05/08 10:42:58;;;;;;;;;49.33;39.33;;;;;18.99;53.59;102279.66;4976994;28;45432;-55
2022/05/08 10:45:30;;;;;;;;;50.33;41.33;;;;;19.28;53.14;102274.25;4978736;28;45804;-55
2022/05/08 10:47:56;;;;;;;;;49.33;39.67;;;;;19.87;53.27;102278.56;4978504;28;45497;-55
2022/05/08 10:50:22;;;;;;;;;52.33;43.67;;;;;20.33;51.99;102280.84;4979009;28;45349;-54
2022/05/08 10:52:47;;;;;;;;;50.33;40.00;;;;;20.58;51.18;102276.47;4976945;28;66632;-55
2022/05/08 10:55:17;;;;;;;;;52.33;43.67;;;;;21.14;50.67;102268.03;4979330;28;45477;-56
2022/05/08 10:57:44;;;;;;;;;54.33;42.00;;;;;21.53;49.80;102264.41;4977554;28;46575;-55
2022/05/08 11:00:11;;;;;;;;;41.33;34.33;;;;;21.61;48.25;102271.00;4979302;28;45722;-56
2022/05/08 11:02:52;;;;;;;;;53.00;40.67;;;;;21.78;48.79;102272.47;4961578;28;45354;-56
2022/05/08 11:05:21;;;;;;;;;52.67;41.00;;;;;21.98;47.54;102262.84;4980330;28;45803;-56
2022/05/08 11:07:58;;;;;;;;;46.33;38.00;;;;;22.78;46.40;102265.81;4981493;28;45350;-56
2022/05/08 11:10:28;;;;;;;;;51.00;38.00;;;;;23.29;45.74;102270.75;4983355;28;45639;-56
2022/05/08 11:13:06;;;;;;;;;47.67;38.67;;;;;24.10;45.24;102262.28;4980503;28;46687;-56
2022/05/08 11:15:32;;;;;;;;;52.00;39.00;;;;;25.15;43.40;102267.81;4970820;28;45424;-57
2022/05/08 11:18:17;;;;;;;;;46.00;35.67;;;;;25.98;40.89;102251.25;4964457;28;45278;-56
2022/05/08 11:20:46;;;;;;;;;47.00;39.33;;;;;26.57;40.80;102254.81;4981749;28;45330;-56
2022/05/08 11:23:12;;;;;;;;;47.67;35.67;;;;;27.16;40.62;102258.19;4981709;28;46193;-56
2022/05/08 11:25:37;;;;;;;;;46.67;35.67;;;;;27.66;38.88;102256.91;4981794;28;45966;-56
2022/05/08 11:28:03;;;;;;;;;48.00;38.33;;;;;27.61;36.60;102258.41;4965981;28;45455;-57
2022/05/08 11:30:41;;;;;;;;;45.33;37.33;;;;;26.95;37.08;102263.91;4980902;28;45448;-56
2022/05/08 11:36:05;;;;;;;;;44.67;37.00;;;;;27.85;37.44;102255.91;4981448;28;45430;-56